createdAt,value
2022-12-20T00:00:44.610Z,36.30
2022-12-20T00:02:48.787Z,36.20
2022-12-20T00:04:51.317Z,36.20
2022-12-20T00:06:52.949Z,36.50
2022-12-20T00:08:56.334Z,36.50
2022-12-20T00:11:01.426Z,36.90
2022-12-20T00:13:03.190Z,36.90
2022-12-20T00:15:05.580Z,36.70
2022-12-20T00:17:07.215Z,36.40
2022-12-20T00:19:10.582Z,36.60
2022-12-20T00:21:14.435Z,36.70
2022-12-20T00:23:23.511Z,36.80
2022-12-20T00:25:25.685Z,37.00
2022-12-20T00:27:27.386Z,36.90
2022-12-20T00:29:31.016Z,36.80
2022-12-20T00:31:33.300Z,36.80
2022-12-20T00:33:37.349Z,36.70
2022-12-20T00:35:43.082Z,36.50
2022-12-20T00:37:44.763Z,36.60
2022-12-20T00:39:46.602Z,36.40
2022-12-20T00:41:48.316Z,36.50
2022-12-20T00:43:50.103Z,36.50
2022-12-20T00:45:52.158Z,36.40
2022-12-20T00:48:02.581Z,36.70
2022-12-20T00:50:04.971Z,36.80
2022-12-20T00:52:08.052Z,36.90
2022-12-20T00:54:09.788Z,36.70
2022-12-20T00:56:14.095Z,36.90
2022-12-20T00:58:15.830Z,37.00
2022-12-20T01:00:17.938Z,37.30
2022-12-20T01:02:20.105Z,37.50
2022-12-20T01:04:23.526Z,37.70
2022-12-20T01:06:26.469Z,37.80
2022-12-20T01:08:30.318Z,37.70
2022-12-20T01:10:34.385Z,37.70
2022-12-20T01:12:36.071Z,37.60
2022-12-20T01:14:38.919Z,37.30
2022-12-20T01:16:43.804Z,37.30
2022-12-20T01:18:50.213Z,37.20
2022-12-20T01:21:01.828Z,37.10
2022-12-20T01:23:03.715Z,37.50
2022-12-20T01:25:06.339Z,37.60
2022-12-20T01:27:07.960Z,37.90
2022-12-20T01:29:09.918Z,38.20
2022-12-20T01:31:14.815Z,38.10
2022-12-20T01:33:16.568Z,38.90
2022-12-20T01:35:18.270Z,38.50
2022-12-20T01:37:19.964Z,38.40
2022-12-20T01:39:21.779Z,38.30
2022-12-20T01:41:24.615Z,38.20
2022-12-20T01:43:47.239Z,38.30
2022-12-20T01:45:52.718Z,38.20
2022-12-20T01:47:55.547Z,38.20
2022-12-20T01:49:59.211Z,38.00
2022-12-20T01:52:35.470Z,37.80
2022-12-20T01:54:49.777Z,38.00
2022-12-20T01:56:57.153Z,38.10
2022-12-20T01:59:00.730Z,37.80
2022-12-20T02:01:02.635Z,37.80
2022-12-20T02:03:09.162Z,37.80
2022-12-20T02:05:11.548Z,37.70
2022-12-20T02:07:20.188Z,37.70
2022-12-20T02:09:23.780Z,37.70
2022-12-20T02:11:39.923Z,37.60
2022-12-20T02:14:07.905Z,37.70
2022-12-20T02:16:12.865Z,37.60
2022-12-20T02:18:43.187Z,37.70
2022-12-20T02:21:25.827Z,37.40
2022-12-20T02:23:49.071Z,37.30
2022-12-20T02:26:17.971Z,37.40
2022-12-20T02:28:46.194Z,37.40
2022-12-20T02:30:54.785Z,37.30
2022-12-20T02:33:02.204Z,37.30
2022-12-20T02:35:07.815Z,37.70
2022-12-20T02:37:12.968Z,37.70
2022-12-20T02:39:17.763Z,37.70
2022-12-20T02:41:40.413Z,37.90
2022-12-20T02:44:04.474Z,37.80
2022-12-20T02:46:07.549Z,37.70
2022-12-20T02:48:11.338Z,37.70
2022-12-20T02:50:17.163Z,37.60
2022-12-20T02:52:22.253Z,37.80
2022-12-20T02:54:26.952Z,37.60
2022-12-20T02:56:48.648Z,37.50
2022-12-20T02:58:55.240Z,37.50
2022-12-20T03:01:04.309Z,37.50
2022-12-20T03:03:25.057Z,37.60
2022-12-20T03:05:28.072Z,37.60
2022-12-20T03:07:29.811Z,37.70
2022-12-20T03:09:34.912Z,37.60
2022-12-20T03:11:36.590Z,37.40
2022-12-20T03:13:40.432Z,37.20
2022-12-20T03:15:44.855Z,37.40
2022-12-20T03:17:46.573Z,37.10
2022-12-20T03:19:48.322Z,37.00
2022-12-20T03:21:52.978Z,37.10
2022-12-20T03:23:54.839Z,37.10
2022-12-20T03:25:56.904Z,37.10
2022-12-20T03:28:09.367Z,37.10
2022-12-20T03:30:12.056Z,36.90
2022-12-20T03:32:13.762Z,37.00
2022-12-20T03:34:21.273Z,36.80
2022-12-20T03:36:24.075Z,36.90
2022-12-20T03:38:33.020Z,37.00
2022-12-20T03:40:34.939Z,36.80
2022-12-20T03:42:37.377Z,36.80
2022-12-20T03:44:39.363Z,36.80
2022-12-20T03:46:41.390Z,36.70
2022-12-20T03:48:43.979Z,36.80
2022-12-20T03:50:52.144Z,36.70
2022-12-20T03:52:56.839Z,36.70
2022-12-20T03:54:58.485Z,36.50
2022-12-20T03:57:07.653Z,36.50
2022-12-20T03:59:09.626Z,36.30
2022-12-20T04:01:23.081Z,36.40
2022-12-20T04:03:25.632Z,36.40
2022-12-20T04:05:31.835Z,36.40
2022-12-20T04:07:35.591Z,36.50
2022-12-20T04:09:37.385Z,36.50
2022-12-20T04:11:43.827Z,36.50
2022-12-20T04:13:51.989Z,36.60
2022-12-20T04:16:00.049Z,37.10
2022-12-20T04:18:05.045Z,36.40
2022-12-20T04:20:19.501Z,36.50
2022-12-20T04:22:26.751Z,36.60
2022-12-20T04:24:35.552Z,36.60
2022-12-20T04:26:49.487Z,36.40
2022-12-20T04:28:52.043Z,36.40
2022-12-20T04:30:53.905Z,36.70
2022-12-20T04:32:59.863Z,36.60
2022-12-20T04:35:03.963Z,36.60
2022-12-20T04:37:10.935Z,36.60
2022-12-20T04:39:20.350Z,36.80
2022-12-20T04:41:50.690Z,36.90
2022-12-20T04:43:54.515Z,37.10
2022-12-20T04:45:58.139Z,37.30
2022-12-20T04:48:28.539Z,37.20
2022-12-20T04:50:25.583Z,37.30
2022-12-20T04:52:51.251Z,37.30
2022-12-20T04:54:54.599Z,37.10
2022-12-20T04:57:02.828Z,37.20
2022-12-20T04:59:04.718Z,37.30
2022-12-20T05:01:10.155Z,37.20
2022-12-20T05:03:23.054Z,37.10
2022-12-20T05:05:25.345Z,36.90
2022-12-20T05:07:30.274Z,37.00
2022-12-20T05:09:32.368Z,36.90
2022-12-20T05:11:34.400Z,37.00
2022-12-20T05:13:38.578Z,36.90
2022-12-20T05:15:42.831Z,36.70
2022-12-20T05:17:45.762Z,36.90
2022-12-20T05:19:47.997Z,36.80
2022-12-20T05:22:09.474Z,36.80
2022-12-20T05:24:32.950Z,36.70
2022-12-20T05:26:52.679Z,36.50
2022-12-20T05:28:54.766Z,36.30
2022-12-20T05:31:00.753Z,36.40
2022-12-20T05:33:07.718Z,36.30
2022-12-20T05:35:09.705Z,36.30
2022-12-20T05:37:12.276Z,36.30
2022-12-20T05:39:19.157Z,36.30
2022-12-20T05:41:22.219Z,36.20
2022-12-20T05:43:26.644Z,36.10
2022-12-20T05:45:29.949Z,36.20
2022-12-20T05:47:39.524Z,36.50
2022-12-20T05:49:45.155Z,36.50
2022-12-20T05:51:46.838Z,36.50
2022-12-20T05:53:58.099Z,36.50
2022-12-20T05:56:23.089Z,36.40
2022-12-20T05:58:26.274Z,36.50
2022-12-20T06:00:32.716Z,36.60
2022-12-20T06:02:35.204Z,36.60
2022-12-20T06:04:38.985Z,36.70
2022-12-20T06:06:49.346Z,36.70
2022-12-20T06:08:53.661Z,36.80
2022-12-20T06:11:05.089Z,37.00
2022-12-20T06:13:13.803Z,36.80
2022-12-20T06:15:15.903Z,36.80
2022-12-20T06:17:18.675Z,36.70
2022-12-20T06:19:21.865Z,36.80
2022-12-20T06:21:28.441Z,36.80
2022-12-20T06:23:30.605Z,36.70
2022-12-20T06:25:43.972Z,36.70
2022-12-20T06:27:46.294Z,36.70
2022-12-20T06:29:54.299Z,36.60
2022-12-20T06:31:59.291Z,36.80
2022-12-20T06:34:03.321Z,36.70
2022-12-20T06:36:09.347Z,36.70
2022-12-20T06:38:12.168Z,36.70
2022-12-20T06:40:14.434Z,36.80
2022-12-20T06:42:16.140Z,36.70
2022-12-20T06:44:19.428Z,36.70
2022-12-20T06:46:21.178Z,36.70
2022-12-20T06:48:23.570Z,36.60
2022-12-20T06:50:25.998Z,36.40
2022-12-20T06:52:27.936Z,36.50
2022-12-20T06:54:30.179Z,36.50
2022-12-20T06:56:39.407Z,36.50
2022-12-20T06:58:46.909Z,36.40
2022-12-20T07:00:49.116Z,36.60
2022-12-20T07:02:50.999Z,36.90
2022-12-20T07:04:55.768Z,36.50
2022-12-20T07:07:00.708Z,36.60
2022-12-20T07:09:03.005Z,36.60
2022-12-20T07:11:06.579Z,36.40
2022-12-20T07:13:09.138Z,36.40
2022-12-20T07:15:10.961Z,36.40
2022-12-20T07:17:12.716Z,36.30
2022-12-20T07:19:16.675Z,36.30
2022-12-20T07:21:19.470Z,36.10
2022-12-20T07:23:23.450Z,36.20
2022-12-20T07:25:25.548Z,36.10
2022-12-20T07:27:27.660Z,36.00
2022-12-20T07:29:31.555Z,36.10
2022-12-20T07:31:33.257Z,36.00
2022-12-20T07:33:35.171Z,36.00
2022-12-20T07:35:36.872Z,35.90
2022-12-20T07:37:38.842Z,35.90
2022-12-20T07:39:42.189Z,35.90
2022-12-20T07:41:46.654Z,35.80
2022-12-20T07:43:51.795Z,36.00
2022-12-20T07:45:57.089Z,36.10
2022-12-20T07:48:03.315Z,36.10
2022-12-20T07:50:09.418Z,36.10
2022-12-20T07:52:12.801Z,36.70
2022-12-20T07:54:19.947Z,36.20
2022-12-20T07:56:22.699Z,36.10
2022-12-20T07:58:27.410Z,36.60
2022-12-20T08:00:29.228Z,35.90
2022-12-20T08:02:48.613Z,35.80
2022-12-20T08:04:50.823Z,35.90
2022-12-20T08:06:59.442Z,35.80
2022-12-20T08:09:04.448Z,35.80
2022-12-20T08:11:10.855Z,35.70
2022-12-20T08:13:12.937Z,35.60
2022-12-20T08:15:15.216Z,35.60
2022-12-20T08:17:16.954Z,35.40
2022-12-20T08:19:18.944Z,35.30
2022-12-20T08:21:20.647Z,35.50
2022-12-20T08:23:25.012Z,35.40
2022-12-20T08:25:39.431Z,35.40
2022-12-20T08:27:43.448Z,35.40
2022-12-20T08:29:45.092Z,35.50
2022-12-20T08:31:50.389Z,35.40
2022-12-20T08:33:55.179Z,35.70
2022-12-20T08:36:02.504Z,35.60
2022-12-20T08:38:04.180Z,35.60
2022-12-20T08:40:07.670Z,35.60
2022-12-20T08:42:13.991Z,35.70
2022-12-20T08:44:15.684Z,35.60
2022-12-20T08:46:17.452Z,35.70
2022-12-20T08:48:19.152Z,35.60
2022-12-20T08:50:22.821Z,35.60
2022-12-20T08:52:24.502Z,35.60
2022-12-20T08:54:26.207Z,35.50
2022-12-20T08:56:30.459Z,35.40
2022-12-20T08:58:32.524Z,35.30
2022-12-20T09:00:34.623Z,35.20
2022-12-20T09:02:38.521Z,35.20
2022-12-20T09:04:44.416Z,35.10
2022-12-20T09:06:49.000Z,34.90
2022-12-20T09:08:51.034Z,35.00
2022-12-20T09:10:53.109Z,34.90
2022-12-20T09:12:54.790Z,35.00
2022-12-20T09:15:01.540Z,35.00
2022-12-20T09:17:03.334Z,35.00
2022-12-20T09:19:06.633Z,35.00
2022-12-20T09:21:12.604Z,34.90
2022-12-20T09:23:16.860Z,35.00
2022-12-20T09:25:18.574Z,35.10
2022-12-20T09:27:20.201Z,34.90
2022-12-20T09:29:28.175Z,35.00
2022-12-20T09:31:33.875Z,34.80
2022-12-20T09:33:36.423Z,35.00
2022-12-20T09:35:47.385Z,34.90
2022-12-20T09:37:49.101Z,34.90
2022-12-20T09:39:51.552Z,34.90
2022-12-20T09:41:53.410Z,34.80
2022-12-20T09:44:02.371Z,34.90
2022-12-20T09:46:04.470Z,34.90
2022-12-20T09:48:29.476Z,34.80
2022-12-20T09:50:49.287Z,34.90
2022-12-20T09:53:17.955Z,34.80
2022-12-20T09:55:32.832Z,34.70
2022-12-20T09:58:04.914Z,34.80
2022-12-20T10:00:19.048Z,34.80
2022-12-20T10:04:47.591Z,34.70
2022-12-20T10:07:10.763Z,34.90
2022-12-20T10:09:50.623Z,35.00
2022-12-20T10:12:24.517Z,35.10
2022-12-20T10:14:50.380Z,35.00
2022-12-20T10:17:11.286Z,35.00
2022-12-20T10:19:35.657Z,35.00
2022-12-20T10:21:47.074Z,35.00
2022-12-20T10:23:55.579Z,34.90
2022-12-20T10:25:58.049Z,34.80
2022-12-20T10:28:14.039Z,34.80
2022-12-20T10:30:21.123Z,34.70
2022-12-20T10:32:24.256Z,34.60
2022-12-20T10:34:28.870Z,34.40
2022-12-20T10:36:37.219Z,34.40
2022-12-20T10:38:49.188Z,34.30
2022-12-20T10:43:25.023Z,34.50
2022-12-20T10:45:42.879Z,34.00
2022-12-20T10:47:46.348Z,34.00
2022-12-20T10:49:48.092Z,33.90
2022-12-20T10:52:13.884Z,33.70
2022-12-20T10:54:29.007Z,33.80
2022-12-20T10:56:32.750Z,33.40
2022-12-20T10:58:36.553Z,33.20
2022-12-20T11:00:38.860Z,32.80
2022-12-20T11:02:44.027Z,32.90
2022-12-20T11:05:15.520Z,32.80
2022-12-20T11:07:29.858Z,32.60
2022-12-20T11:09:34.737Z,32.70
2022-12-20T11:11:36.521Z,32.70
2022-12-20T11:13:38.746Z,32.90
2022-12-20T11:15:49.652Z,32.80
2022-12-20T11:18:25.904Z,32.80
2022-12-20T11:20:42.727Z,32.80
2022-12-20T11:22:51.431Z,32.80
2022-12-20T11:25:09.308Z,32.70
2022-12-20T11:27:31.987Z,32.60
2022-12-20T11:29:55.972Z,32.60
2022-12-20T11:32:10.988Z,32.50
2022-12-20T11:34:50.421Z,32.60
2022-12-20T11:37:27.647Z,32.50
2022-12-20T11:39:57.857Z,32.60
2022-12-20T11:42:14.765Z,32.50
2022-12-20T11:44:28.006Z,32.50
2022-12-20T11:47:02.103Z,32.40
2022-12-20T11:49:18.811Z,32.40
2022-12-20T11:51:28.953Z,32.40
2022-12-20T11:53:42.128Z,32.50
2022-12-20T11:55:50.587Z,32.50
2022-12-20T11:58:18.543Z,32.40
2022-12-20T12:00:25.288Z,32.50
2022-12-20T12:02:38.471Z,32.80
2022-12-20T12:04:44.968Z,32.50
2022-12-20T12:07:10.595Z,32.20
2022-12-20T12:09:22.551Z,31.60
2022-12-20T12:13:55.085Z,30.80
2022-12-20T12:16:03.662Z,30.90
2022-12-20T12:18:19.598Z,30.90
2022-12-20T12:20:47.393Z,30.90
2022-12-20T12:22:53.187Z,30.90
2022-12-20T12:24:59.990Z,31.00
2022-12-20T12:27:02.490Z,30.90
2022-12-20T12:29:10.138Z,30.90
2022-12-20T12:31:18.454Z,30.80
2022-12-20T12:33:26.309Z,30.80
2022-12-20T12:35:50.961Z,30.80
2022-12-20T12:38:30.027Z,30.90
2022-12-20T12:40:55.700Z,30.80
2022-12-20T12:43:09.869Z,30.80
2022-12-20T12:45:28.885Z,30.80
2022-12-20T12:47:54.762Z,30.80
2022-12-20T12:49:58.403Z,30.80
2022-12-20T12:52:04.616Z,30.80
2022-12-20T12:54:09.567Z,30.80
2022-12-20T12:56:47.382Z,31.50
2022-12-20T12:59:07.902Z,30.80
2022-12-20T13:01:11.775Z,31.00
2022-12-20T13:03:35.950Z,30.90
2022-12-20T13:05:37.666Z,30.90
2022-12-20T13:07:44.749Z,30.90
2022-12-20T13:09:49.104Z,30.90
2022-12-20T13:12:00.966Z,30.70
2022-12-20T13:14:31.031Z,30.80
2022-12-20T13:19:04.894Z,30.50
2022-12-20T13:21:35.929Z,30.40
2022-12-20T13:23:37.647Z,30.40
2022-12-20T13:25:48.714Z,30.30
2022-12-20T13:27:50.594Z,30.40
2022-12-20T13:30:06.790Z,30.20
2022-12-20T13:32:46.858Z,30.30
2022-12-20T13:34:55.727Z,30.30
2022-12-20T13:36:59.709Z,30.00
2022-12-20T13:39:21.643Z,30.10
2022-12-20T13:41:37.253Z,30.10
2022-12-20T13:43:44.598Z,30.00
2022-12-20T13:45:49.693Z,30.10
2022-12-20T13:47:58.025Z,30.00
2022-12-20T13:50:02.134Z,30.10
2022-12-20T13:52:25.056Z,30.00
2022-12-20T13:54:27.787Z,30.00
2022-12-20T13:56:50.153Z,30.00
2022-12-20T13:58:52.497Z,30.00
2022-12-20T14:01:05.549Z,30.00
2022-12-20T14:03:33.259Z,30.00
2022-12-20T14:05:38.263Z,30.00
2022-12-20T14:07:40.875Z,30.00
2022-12-20T14:09:45.713Z,30.00
2022-12-20T14:11:47.684Z,30.00
2022-12-20T14:14:03.298Z,30.00
2022-12-20T14:16:16.020Z,30.00
2022-12-20T14:18:22.631Z,30.00
2022-12-20T14:20:37.259Z,30.00
2022-12-20T14:22:43.581Z,30.00
2022-12-20T14:24:45.982Z,29.90
2022-12-20T14:26:54.223Z,29.90
2022-12-20T14:29:01.346Z,29.90
2022-12-20T14:31:09.470Z,29.80
2022-12-20T14:33:26.288Z,29.90
2022-12-20T14:35:28.408Z,30.00
2022-12-20T14:37:39.109Z,30.00
2022-12-20T14:40:15.861Z,30.10
2022-12-20T14:42:20.439Z,30.00
2022-12-20T14:44:23.935Z,29.90
2022-12-20T14:46:25.682Z,30.00
2022-12-20T14:48:27.455Z,30.00
2022-12-20T14:50:37.923Z,30.20
2022-12-20T14:52:42.180Z,30.30
2022-12-20T14:55:20.399Z,30.30
2022-12-20T14:57:29.216Z,30.40
2022-12-20T14:59:33.708Z,30.30
2022-12-20T15:01:41.757Z,30.40
2022-12-20T15:04:00.462Z,30.30
2022-12-20T15:06:05.202Z,30.40
2022-12-20T15:08:33.402Z,31.00
2022-12-20T15:10:35.151Z,30.60
2022-12-20T15:12:41.937Z,30.50
2022-12-20T15:14:44.184Z,30.90
2022-12-20T15:16:49.601Z,31.00
2022-12-20T15:19:01.927Z,31.00
2022-12-20T15:21:17.115Z,30.90
2022-12-20T15:23:21.359Z,31.00
2022-12-20T15:25:25.254Z,31.20
2022-12-20T15:27:29.648Z,31.70
2022-12-20T15:29:31.339Z,32.50
2022-12-20T15:31:38.369Z,32.00
2022-12-20T15:33:41.529Z,32.30
2022-12-20T15:35:44.018Z,32.40
2022-12-20T15:37:45.662Z,32.50
2022-12-20T15:39:47.452Z,32.80
2022-12-20T15:41:50.186Z,33.10
2022-12-20T15:43:56.404Z,33.30
2022-12-20T15:45:58.271Z,33.40
2022-12-20T15:47:59.877Z,33.70
2022-12-20T15:50:01.504Z,33.80
2022-12-20T15:52:03.328Z,34.00
2022-12-20T15:54:13.923Z,34.20
2022-12-20T15:56:21.812Z,34.10
2022-12-20T15:58:25.011Z,34.30
2022-12-20T16:00:26.799Z,34.30
2022-12-20T16:02:29.910Z,34.30
2022-12-20T16:04:31.751Z,34.30
2022-12-20T16:06:33.486Z,34.40
2022-12-20T16:08:38.083Z,34.60
2022-12-20T16:10:40.063Z,34.90
2022-12-20T16:12:42.607Z,34.90
2022-12-20T16:14:46.842Z,35.00
2022-12-20T16:16:49.997Z,35.10
2022-12-20T16:18:53.637Z,35.00
2022-12-20T16:20:55.950Z,34.90
2022-12-20T16:22:59.680Z,35.00
2022-12-20T16:25:01.657Z,35.00
2022-12-20T16:27:03.380Z,35.10
2022-12-20T16:29:05.123Z,35.30
2022-12-20T16:31:31.078Z,35.60
2022-12-20T16:33:32.790Z,35.80
2022-12-20T16:35:37.233Z,35.60
2022-12-20T16:37:39.380Z,35.60
2022-12-20T16:39:41.927Z,35.70
2022-12-20T16:41:44.732Z,36.10
2022-12-20T16:43:48.603Z,36.10
2022-12-20T16:45:50.268Z,36.10
2022-12-20T16:47:53.038Z,36.90
2022-12-20T16:49:56.984Z,36.60
2022-12-20T16:51:58.718Z,36.70
2022-12-20T16:54:21.267Z,37.00
2022-12-20T16:56:24.245Z,37.10
2022-12-20T16:58:52.329Z,37.00
2022-12-20T17:00:48.212Z,37.10
2022-12-20T17:02:51.500Z,37.10
2022-12-20T17:04:53.402Z,37.00
2022-12-20T17:06:57.642Z,37.00
2022-12-20T17:11:36.355Z,37.30
2022-12-20T17:13:38.061Z,37.80
2022-12-20T17:15:40.385Z,37.70
2022-12-20T17:17:42.002Z,37.90
2022-12-20T17:19:43.736Z,37.90
2022-12-20T17:24:19.862Z,38.20
2022-12-20T17:26:24.655Z,38.20
2022-12-20T17:28:26.870Z,38.10
2022-12-20T17:30:30.736Z,38.00
2022-12-20T17:32:37.048Z,38.20
2022-12-20T17:34:39.916Z,38.40
2022-12-20T17:36:41.649Z,38.60
2022-12-20T17:38:45.384Z,38.70
2022-12-20T17:40:52.250Z,39.00
2022-12-20T17:42:54.561Z,39.20
2022-12-20T17:44:56.263Z,39.10
2022-12-20T17:46:59.233Z,39.30
2022-12-20T17:49:00.910Z,39.50
2022-12-20T17:51:02.826Z,39.70
2022-12-20T17:53:05.289Z,39.90
2022-12-20T17:55:07.890Z,39.80
2022-12-20T17:57:14.789Z,40.00
2022-12-20T17:59:17.420Z,40.20
2022-12-20T18:01:30.880Z,40.40
2022-12-20T18:04:02.164Z,40.30
2022-12-20T18:06:00.862Z,40.70
2022-12-20T18:08:05.939Z,40.50
2022-12-20T18:10:08.590Z,40.60
2022-12-20T18:12:10.994Z,41.10
2022-12-20T18:14:13.263Z,41.10
2022-12-20T18:16:17.535Z,41.10
2022-12-20T18:18:19.270Z,41.00
2022-12-20T18:20:21.061Z,41.10
2022-12-20T18:22:22.775Z,41.10
2022-12-20T18:24:24.453Z,41.10
2022-12-20T18:26:30.043Z,41.00
2022-12-20T18:28:33.987Z,41.00
2022-12-20T18:30:37.850Z,41.20
2022-12-20T18:32:41.903Z,41.60
2022-12-20T18:34:44.034Z,41.70
2022-12-20T18:36:45.833Z,41.80
2022-12-20T18:38:52.549Z,42.20
2022-12-20T18:40:54.273Z,42.20
2022-12-20T18:42:59.608Z,42.40
2022-12-20T18:45:07.539Z,42.50
2022-12-20T18:47:09.215Z,42.70
2022-12-20T18:49:13.012Z,42.80
2022-12-20T18:51:17.185Z,43.00
2022-12-20T18:53:18.896Z,42.90
2022-12-20T18:55:20.642Z,43.40
2022-12-20T18:57:22.388Z,43.70
2022-12-20T18:59:24.305Z,43.70
2022-12-20T19:01:28.871Z,44.00
2022-12-20T19:03:30.841Z,44.00
2022-12-20T19:05:33.296Z,44.10
2022-12-20T19:07:35.159Z,44.50
2022-12-20T19:09:36.979Z,45.00
2022-12-20T19:11:39.311Z,45.20
2022-12-20T19:13:43.305Z,45.50
2022-12-20T19:15:47.179Z,45.40
2022-12-20T19:17:48.822Z,45.40
2022-12-20T19:19:52.866Z,45.90
2022-12-20T19:21:54.491Z,45.80
2022-12-20T19:23:59.136Z,45.90
2022-12-20T19:26:06.764Z,46.10
2022-12-20T19:28:10.422Z,46.00
2022-12-20T19:30:12.258Z,46.10
2022-12-20T19:32:13.904Z,46.40
2022-12-20T19:34:15.649Z,46.50
2022-12-20T19:36:22.149Z,46.50
2022-12-20T19:38:28.121Z,46.60
2022-12-20T19:40:30.710Z,47.00
2022-12-20T19:42:32.342Z,47.20
2022-12-20T19:44:34.088Z,47.20
2022-12-20T19:46:39.676Z,47.20
2022-12-20T19:48:43.009Z,47.40
2022-12-20T19:50:45.612Z,47.20
2022-12-20T19:52:49.488Z,47.20
2022-12-20T19:54:52.365Z,47.50
2022-12-20T19:56:55.320Z,47.60
2022-12-20T19:59:00.193Z,47.60
2022-12-20T20:01:01.988Z,47.70
2022-12-20T20:03:04.090Z,47.80
2022-12-20T20:05:14.707Z,47.90
2022-12-20T20:07:17.499Z,47.90
2022-12-20T20:09:24.638Z,47.70
2022-12-20T20:11:29.229Z,47.90
2022-12-20T20:13:31.611Z,47.50
2022-12-20T20:15:33.401Z,47.30
2022-12-20T20:17:35.765Z,47.50
2022-12-20T20:19:37.996Z,47.70
2022-12-20T20:21:39.774Z,47.60
2022-12-20T20:23:43.860Z,47.50
2022-12-20T20:25:54.280Z,47.60
2022-12-20T20:27:56.237Z,47.70
2022-12-20T20:29:58.279Z,47.70
2022-12-20T20:32:00.493Z,48.30
2022-12-20T20:34:02.634Z,47.90
2022-12-20T20:36:05.308Z,48.10
2022-12-20T20:38:08.204Z,48.10
2022-12-20T20:40:13.046Z,48.30
2022-12-20T20:42:18.507Z,48.30
2022-12-20T20:44:24.696Z,48.20
2022-12-20T20:46:27.531Z,48.40
2022-12-20T20:48:31.851Z,48.80
2022-12-20T20:50:34.876Z,49.00
2022-12-20T20:52:39.249Z,48.90
2022-12-20T20:54:40.917Z,49.10
2022-12-20T20:56:42.961Z,49.20
2022-12-20T20:58:50.185Z,49.20
2022-12-20T21:00:55.992Z,49.10
2022-12-20T21:02:59.552Z,49.30
2022-12-20T21:05:59.214Z,49.40
2022-12-20T21:07:23.145Z,49.50
2022-12-20T21:09:24.859Z,49.60
2022-12-20T21:11:27.795Z,49.40
2022-12-20T21:13:32.848Z,49.40
2022-12-20T21:15:35.273Z,49.70
2022-12-20T21:17:40.310Z,49.80
2022-12-20T21:19:42.069Z,50.00
2022-12-20T21:21:46.233Z,50.00
2022-12-20T21:23:48.419Z,50.00
2022-12-20T21:25:57.344Z,50.50
2022-12-20T21:27:59.321Z,50.50
2022-12-20T21:30:01.036Z,50.50
2022-12-20T21:32:03.382Z,50.50
2022-12-20T21:34:05.110Z,50.40
2022-12-20T21:36:10.913Z,50.40
2022-12-20T21:38:14.075Z,50.40
2022-12-20T21:40:15.991Z,50.40
2022-12-20T21:42:19.961Z,50.10
2022-12-20T21:44:24.214Z,50.40
2022-12-20T21:46:27.658Z,50.50
2022-12-20T21:48:30.203Z,50.30
2022-12-20T21:50:34.042Z,50.40
2022-12-20T21:52:35.751Z,50.50
2022-12-20T21:54:40.308Z,50.80
2022-12-20T21:56:41.935Z,50.70
2022-12-20T21:58:44.634Z,50.50
2022-12-20T22:00:52.529Z,50.90
2022-12-20T22:02:57.258Z,51.30
2022-12-20T22:04:59.186Z,51.30
2022-12-20T22:07:03.546Z,51.20
2022-12-20T22:09:09.981Z,51.20
2022-12-20T22:11:14.210Z,51.30
2022-12-20T22:13:15.908Z,51.30
2022-12-20T22:15:21.958Z,51.30
2022-12-20T22:17:23.630Z,51.20
2022-12-20T22:19:25.417Z,51.20
2022-12-20T22:21:29.404Z,51.00
2022-12-20T22:23:31.390Z,51.30
2022-12-20T22:25:36.416Z,51.30
2022-12-20T22:27:38.108Z,51.20
2022-12-20T22:29:39.875Z,51.40
2022-12-20T22:31:42.209Z,51.20
2022-12-20T22:33:45.792Z,51.30
2022-12-20T22:35:47.464Z,51.30
2022-12-20T22:37:49.179Z,51.70
2022-12-20T22:39:50.931Z,51.30
2022-12-20T22:41:52.614Z,51.40
2022-12-20T22:43:54.648Z,51.40
2022-12-20T22:45:57.327Z,51.30
2022-12-20T22:48:00.155Z,51.60
2022-12-20T22:50:01.917Z,51.70
2022-12-20T22:52:07.697Z,51.70
2022-12-20T22:54:10.484Z,52.20
2022-12-20T22:56:12.181Z,52.30
2022-12-20T22:58:13.908Z,52.70
2022-12-20T23:00:15.943Z,52.20
2022-12-20T23:02:17.800Z,52.20
2022-12-20T23:04:19.692Z,52.20
2022-12-20T23:06:23.949Z,52.30
2022-12-20T23:08:27.842Z,52.30
2022-12-20T23:10:51.070Z,52.30
2022-12-20T23:13:11.368Z,52.80
2022-12-20T23:15:32.045Z,52.50
2022-12-20T23:17:34.919Z,52.70
2022-12-20T23:19:55.679Z,53.00
2022-12-20T23:22:16.094Z,53.30
2022-12-20T23:24:17.847Z,52.60
2022-12-20T23:26:19.578Z,52.90
2022-12-20T23:28:21.399Z,52.60
2022-12-20T23:30:24.417Z,52.70
2022-12-20T23:32:26.393Z,52.80
2022-12-20T23:34:35.767Z,52.50
2022-12-20T23:36:37.742Z,53.10
2022-12-20T23:38:39.533Z,53.00
2022-12-20T23:40:41.381Z,52.80
2022-12-20T23:42:43.698Z,52.80
2022-12-20T23:44:45.525Z,52.80
2022-12-20T23:46:47.324Z,52.80
2022-12-20T23:48:53.577Z,53.30
2022-12-20T23:50:56.741Z,53.50
2022-12-20T23:53:00.803Z,53.20
2022-12-20T23:55:04.854Z,53.00
2022-12-20T23:57:08.739Z,53.40
2022-12-20T23:59:10.772Z,53.50
